Time;durP1;ratioP1;P1;durP2;ratioP2;P2;SDS_P1;SDS_P2;PMS_P1;PMS_P2;Temp;Humidity;BMP_temperature;BMP_pressure;BME280_temperature;BME280_humidity;BME280_pressure;Samples;Min_cycle;Max_cycle;Signal;HPM_P1;HPM_P2
2024/04/23 00:01:13;;;;;;;11.88;5.25;;;;;;;8.02;70.37;101046.09;5400464;26;20012;-46
2024/04/23 00:03:40;;;;;;;11.38;4.97;;;;;;;8.01;70.52;101050.41;5402388;26;20004;-46
2024/04/23 00:06:08;;;;;;;14.65;4.55;;;;;;;8.01;70.67;101044.34;5377234;26;20020;-50
2024/04/23 00:08:35;;;;;;;11.18;5.00;;;;;;;8.01;70.34;101039.19;5379971;26;20654;-48
2024/04/23 00:11:02;;;;;;;10.80;4.95;;;;;;;8.00;70.61;101032.31;5360520;26;20009;-47
2024/04/23 00:13:30;;;;;;;9.98;4.10;;;;;;;8.00;70.72;101032.31;5363712;26;20000;-47
2024/04/23 00:15:58;;;;;;;10.95;4.57;;;;;;;7.97;70.75;101026.22;5383283;26;20012;-48
2024/04/23 00:18:25;;;;;;;12.98;4.78;;;;;;;7.97;70.97;101038.22;5398645;26;20637;-48
2024/04/23 00:20:55;;;;;;;10.70;4.05;;;;;;;7.97;70.57;101033.97;5370386;26;20026;-47
2024/04/23 00:23:23;;;;;;;11.90;4.97;;;;;;;8.00;70.80;101037.47;5372164;26;20008;-45
2024/04/23 00:25:51;;;;;;;12.52;4.72;;;;;;;8.00;70.77;101028.00;5372235;26;20016;-50
2024/04/23 00:28:19;;;;;;;9.50;3.78;;;;;;;8.01;70.74;101026.31;5371925;26;20809;-48
2024/04/23 00:30:46;;;;;;;10.95;4.43;;;;;;;8.01;70.76;101029.75;5363306;26;20004;-47
2024/04/23 00:33:14;;;;;;;9.70;4.05;;;;;;;8.02;71.33;101021.19;5372841;26;20019;-48
2024/04/23 00:35:42;;;;;;;9.90;3.72;;;;;;;8.03;70.92;101024.59;5372148;26;20019;-48
2024/04/23 00:38:10;;;;;;;10.20;4.20;;;;;;;8.04;70.67;101029.81;5371688;26;20055;-47
2024/04/23 00:40:37;;;;;;;11.63;4.13;;;;;;;8.04;70.72;101018.63;5371565;26;20012;-46
2024/04/23 00:43:05;;;;;;;11.45;4.82;;;;;;;8.04;71.06;101014.31;5368232;26;20396;-47
2024/04/23 00:45:36;;;;;;;12.27;4.78;;;;;;;8.04;71.00;101018.63;5371905;26;20755;-46
2024/04/23 00:48:04;;;;;;;12.80;4.97;;;;;;;8.04;70.81;101016.06;5340365;26;19996;-46
2024/04/23 00:50:32;;;;;;;12.50;4.85;;;;;;;8.04;71.03;101018.63;5368021;26;20050;-47
2024/04/23 00:53:00;;;;;;;12.43;4.68;;;;;;;8.05;71.08;101030.69;5401329;26;20021;-48
2024/04/23 00:55:29;;;;;;;8.75;3.85;;;;;;;8.06;71.03;101016.94;5404200;26;20058;-46
2024/04/23 00:57:57;;;;;;;10.23;3.97;;;;;;;8.05;71.18;101015.22;5392019;26;20004;-48
2024/04/23 01:00:24;;;;;;;9.27;4.05;;;;;;;8.03;71.04;101016.88;5369759;26;20004;-47
2024/04/23 01:02:51;;;;;;;9.45;3.67;;;;;;;8.03;71.24;101019.44;5367805;26;20040;-47
2024/04/23 01:05:18;;;;;;;11.00;4.07;;;;;;;8.03;71.51;101027.19;5360521;26;20015;-48
2024/04/23 01:07:44;;;;;;;11.50;4.50;;;;;;;7.98;71.66;101025.38;5361981;26;20013;-49
2024/04/23 01:10:11;;;;;;;9.32;3.60;;;;;;;7.98;71.19;101025.38;5389706;26;20577;-49
2024/04/23 01:12:38;;;;;;;10.13;3.90;;;;;;;8.00;71.59;101020.25;5405962;26;20031;-52
2024/04/23 01:15:07;;;;;;;10.55;3.58;;;;;;;8.01;71.32;101005.66;5402319;26;20003;-50
2024/04/23 01:17:38;;;;;;;9.70;4.78;;;;;;;8.02;71.57;101009.97;5371801;26;20097;-53
2024/04/23 01:20:08;;;;;;;8.80;3.78;;;;;;;8.01;71.56;101003.97;5367446;26;19996;-50
2024/04/23 01:22:50;;;;;;;10.20;4.05;;;;;;;8.01;71.89;101003.06;5371348;26;20048;-48
2024/04/23 01:25:21;;;;;;;11.52;3.30;;;;;;;8.01;71.32;100992.75;5363235;26;20019;-47
2024/04/23 01:27:49;;;;;;;11.18;4.18;;;;;;;7.98;71.88;100994.41;5369341;26;20360;-47
2024/04/23 01:30:18;;;;;;;9.23;4.25;;;;;;;7.99;71.76;100995.31;5369204;26;21054;-48
2024/04/23 01:32:47;;;;;;;10.48;4.35;;;;;;;7.98;71.75;100989.25;5369834;26;20067;-47
2024/04/23 01:35:16;;;;;;;13.30;4.55;;;;;;;8.00;71.67;100985.88;5372327;26;20000;-45
2024/04/23 01:37:46;;;;;;;12.85;4.85;;;;;;;8.00;71.71;100983.28;5366471;26;20008;-47
2024/04/23 01:40:13;;;;;;;14.30;5.13;;;;;;;7.97;71.40;100979.78;5389699;26;20011;-47
2024/04/23 01:42:41;;;;;;;14.95;5.97;;;;;;;7.94;71.77;100987.44;5403469;26;20017;-48
2024/04/23 01:45:11;;;;;;;12.80;5.03;;;;;;;7.92;71.64;100994.28;5399610;26;19999;-48
2024/04/23 01:47:38;;;;;;;12.48;5.32;;;;;;;7.90;71.50;100995.94;5402116;26;20414;-46
2024/04/23 01:50:06;;;;;;;15.23;5.07;;;;;;;7.88;71.96;100984.75;5364705;26;20844;-48
2024/04/23 01:52:33;;;;;;;15.65;6.00;;;;;;;7.87;71.69;100982.97;5380953;26;20018;-49
2024/04/23 01:55:00;;;;;;;17.73;6.60;;;;;;;7.85;72.22;100982.09;5389889;26;20481;-47
2024/04/23 01:57:27;;;;;;;16.08;6.63;;;;;;;7.86;72.32;100988.13;5369930;26;20492;-51
2024/04/23 02:00:02;;;;;;;18.05;7.18;;;;;;;7.86;72.17;100983.81;5345182;26;20554;-50
2024/04/23 02:02:29;;;;;;;18.40;7.32;;;;;;;7.89;72.15;100983.91;5376853;26;20093;-46
2024/04/23 02:04:57;;;;;;;19.38;6.45;;;;;;;7.89;72.40;100968.41;5361149;26;20019;-47
2024/04/23 02:07:25;;;;;;;18.23;6.93;;;;;;;7.91;72.21;100971.03;5366126;26;20014;-47
2024/04/23 02:09:53;;;;;;;18.02;7.05;;;;;;;7.91;72.39;100974.47;5367340;26;20847;-48
2024/04/23 02:12:22;;;;;;;16.08;5.55;;;;;;;7.91;72.59;100971.88;5370529;26;20000;-54
2024/04/23 02:14:48;;;;;;;20.52;6.90;;;;;;;7.90;72.68;100974.47;5379356;26;19997;-46
2024/04/23 02:17:17;;;;;;;20.75;7.60;;;;;;;7.89;72.56;100965.84;5350942;26;20475;-46
2024/04/23 02:19:45;;;;;;;18.50;7.10;;;;;;;7.88;73.12;100965.81;5367436;26;20077;-47
2024/04/23 02:22:11;;;;;;;16.92;6.65;;;;;;;7.85;73.27;100958.88;5369946;26;20051;-48
2024/04/23 02:24:38;;;;;;;13.48;5.50;;;;;;;7.85;73.40;100961.44;5368638;26;20015;-48
2024/04/23 02:27:05;;;;;;;17.05;6.20;;;;;;;7.83;74.15;100955.38;5371223;26;20018;-46
2024/04/23 02:29:32;;;;;;;16.42;6.57;;;;;;;7.82;73.54;100958.78;5354750;26;20691;-46
2024/04/23 02:32:03;;;;;;;18.25;6.90;;;;;;;7.80;73.74;100963.06;5366609;26;20019;-47
2024/04/23 02:34:30;;;;;;;16.67;6.15;;;;;;;7.76;74.46;100966.38;5368867;26;20016;-46
2024/04/23 02:36:57;;;;;;;15.70;6.03;;;;;;;7.75;74.59;100960.38;5370926;26;20040;-47
2024/04/23 02:39:24;;;;;;;12.90;5.57;;;;;;;7.77;74.30;100958.69;5377674;26;20619;-46
2024/04/23 02:41:53;;;;;;;12.52;4.70;;;;;;;7.74;73.96;100957.75;5405656;26;20026;-46
2024/04/23 02:44:20;;;;;;;9.75;3.90;;;;;;;7.70;74.11;100956.81;5358820;26;20544;-46
2024/04/23 02:46:47;;;;;;;11.25;4.70;;;;;;;7.65;74.20;100969.59;5359569;26;20527;-47
2024/04/23 02:49:13;;;;;;;8.68;3.95;;;;;;;7.55;74.05;100968.50;5377778;26;19996;-45
2024/04/23 02:51:50;;;;;;;6.55;2.65;;;;;;;7.50;73.98;100958.91;5403264;26;20051;-45
2024/04/23 02:54:17;;;;;;;3.95;2.40;;;;;;;7.42;73.69;100962.16;5399190;26;20086;-46
2024/04/23 02:56:47;;;;;;;8.07;3.03;;;;;;;7.39;73.67;100959.50;5362179;26;20019;-48
2024/04/23 02:59:15;;;;;;;4.63;1.38;;;;;;;7.26;73.89;100966.03;5395154;26;20003;-47
2024/04/23 03:01:41;;;;;;;2.47;0.93;;;;;;;7.20;73.53;100964.19;5395328;26;19999;-47
2024/04/23 03:04:09;;;;;;;4.22;1.67;;;;;;;7.17;73.20;100961.50;5388731;26;20004;-46
2024/04/23 03:06:36;;;;;;;2.42;1.30;;;;;;;7.12;73.22;100968.25;5398081;26;20076;-46
2024/04/23 03:09:03;;;;;;;3.30;1.10;;;;;;;7.00;73.25;100963.69;5405755;26;20004;-44
2024/04/23 03:11:30;;;;;;;3.55;1.15;;;;;;;7.06;73.03;100965.53;5395713;26;20739;-45
2024/04/23 03:13:57;;;;;;;4.50;1.13;;;;;;;7.00;72.92;100962.78;5357782;26;19996;-46
2024/04/23 03:16:24;;;;;;;4.95;1.05;;;;;;;6.96;73.06;100966.13;5352751;26;20768;-45
2024/04/23 03:18:50;;;;;;;4.65;1.02;;;;;;;6.88;72.69;100956.47;5367860;26;20018;-46
2024/04/23 03:21:17;;;;;;;3.20;1.00;;;;;;;6.83;72.94;100958.06;5366568;26;20082;-45
2024/04/23 03:23:44;;;;;;;1.95;0.85;;;;;;;6.78;72.60;100962.19;5369635;26;20016;-45
2024/04/23 03:26:10;;;;;;;2.03;0.93;;;;;;;6.71;72.85;100962.84;5364504;26;21525;-45
2024/04/23 03:28:37;;;;;;;5.85;1.30;;;;;;;6.65;72.84;100956.72;5374344;26;20023;-44
2024/04/23 03:31:04;;;;;;;7.10;1.67;;;;;;;6.59;73.03;100958.25;5365000;26;20005;-45
2024/04/23 03:33:31;;;;;;;4.40;0.95;;;;;;;6.54;72.85;100963.25;5367829;26;20522;-46
2024/04/23 03:35:57;;;;;;;3.10;0.90;;;;;;;6.49;72.82;100954.53;5368750;26;20026;-46
2024/04/23 03:38:24;;;;;;;3.47;0.85;;;;;;;6.43;72.74;100956.09;5364838;26;20016;-45
2024/04/23 03:40:51;;;;;;;2.83;1.38;;;;;;;6.41;72.83;100952.63;5396184;26;20420;-44
2024/04/23 03:43:18;;;;;;;3.28;1.13;;;;;;;6.36;72.92;100954.19;5402194;26;20011;-48
2024/04/23 03:45:45;;;;;;;4.60;0.95;;;;;;;6.30;72.95;100951.41;5389643;26;20000;-45
2024/04/23 03:48:12;;;;;;;3.38;1.08;;;;;;;6.26;72.77;100953.03;5371313;26;20008;-46
2024/04/23 03:50:39;;;;;;;8.63;0.70;;;;;;;6.22;72.90;100945.19;5371077;26;20004;-45
2024/04/23 03:53:05;;;;;;;1.98;0.80;;;;;;;6.17;72.97;100953.63;5370275;26;20071;-45
2024/04/23 03:55:32;;;;;;;1.17;0.90;;;;;;;6.11;73.01;100943.16;5372597;26;20016;-49
2024/04/23 03:57:59;;;;;;;3.10;1.00;;;;;;;6.09;73.02;100943.94;5383820;26;20069;-44
2024/04/23 04:00:27;;;;;;;9.02;1.13;;;;;;;6.03;73.12;100944.59;5404530;26;20399;-45
2024/04/23 04:08:27;;;;;;;7.60;1.73;;;;;;;5.94;73.27;100932.31;5369535;26;20018;-46
2024/04/23 04:10:54;;;;;;;3.53;0.93;;;;;;;5.91;73.00;100938.25;5364710;26;20074;-46
2024/04/23 04:13:21;;;;;;;4.68;0.68;;;;;;;5.89;72.86;100932.19;5372611;26;20076;-46
2024/04/23 04:15:50;;;;;;;3.05;1.05;;;;;;;5.86;72.57;100934.66;5399235;26;20007;-47
2024/04/23 04:18:18;;;;;;;7.30;1.23;;;;;;;5.81;72.78;100938.78;5405894;26;20019;-50
2024/04/23 04:20:45;;;;;;;2.50;0.98;;;;;;;5.79;73.08;100940.44;5373849;26;20361;-49
2024/04/23 04:23:12;;;;;;;10.13;1.00;;;;;;;5.71;73.19;100947.03;5406651;26;20000;-45
2024/04/23 04:25:39;;;;;;;3.05;0.95;;;;;;;5.71;72.99;100939.34;5402213;26;20631;-47
2024/04/23 04:28:06;;;;;;;5.28;0.93;;;;;;;5.72;72.72;100943.63;5400044;26;20011;-47
2024/04/23 04:30:32;;;;;;;3.40;0.52;;;;;;;5.66;72.97;100944.31;5395663;26;20015;-47
2024/04/23 04:32:59;;;;;;;5.32;1.08;;;;;;;5.63;72.73;100950.25;5404632;26;20014;-46
2024/04/23 04:35:26;;;;;;;2.38;0.75;;;;;;;5.55;73.09;100950.81;5402884;26;19999;-48
2024/04/23 04:37:53;;;;;;;3.72;0.88;;;;;;;5.53;72.92;100950.75;5373188;26;20004;-45
2024/04/23 04:40:20;;;;;;;3.63;1.00;;;;;;;5.49;72.90;100946.34;5390834;26;20026;-55
2024/04/23 04:42:47;;;;;;;2.60;1.63;;;;;;;5.46;73.05;100941.09;5388649;26;20004;-47
2024/04/23 04:45:14;;;;;;;3.35;0.70;;;;;;;5.42;72.74;100939.25;5369328;26;20006;-48
2024/04/23 04:47:41;;;;;;;4.40;0.73;;;;;;;5.41;72.91;100948.69;5371541;26;20014;-48
2024/04/23 04:50:08;;;;;;;11.10;1.15;;;;;;;5.39;72.59;100945.16;5362826;26;19996;-46
2024/04/23 04:52:35;;;;;;;3.22;0.95;;;;;;;5.36;72.66;100950.19;5392675;26;20000;-47
2024/04/23 04:55:01;;;;;;;9.20;1.35;;;;;;;5.34;72.44;100947.56;5397487;26;20550;-48
2024/04/23 04:57:31;;;;;;;4.22;0.95;;;;;;;5.29;72.75;100954.25;5396147;26;20020;-47
2024/04/23 04:59:59;;;;;;;3.88;0.75;;;;;;;5.24;72.84;100948.97;5352397;26;20012;-45
2024/04/23 05:02:26;;;;;;;4.32;1.08;;;;;;;5.24;73.00;100946.41;5364613;26;20443;-47
2024/04/23 05:04:54;;;;;;;4.07;0.90;;;;;;;5.25;72.79;100942.13;5362791;26;20020;-47
2024/04/23 05:07:21;;;;;;;10.07;1.33;;;;;;;5.26;72.64;100949.00;5365190;26;20004;-45
2024/04/23 05:09:48;;;;;;;7.22;0.80;;;;;;;5.26;72.53;100956.72;5366814;26;20779;-45
2024/04/23 05:12:15;;;;;;;1.85;1.23;;;;;;;5.27;72.38;100955.94;5368237;26;20004;-48
2024/04/23 05:14:43;;;;;;;2.42;0.70;;;;;;;5.26;72.50;100959.28;5358686;26;20031;-48
2024/04/23 05:17:10;;;;;;;10.57;0.88;;;;;;;5.25;72.56;100957.56;5366492;26;20379;-47
2024/04/23 05:19:37;;;;;;;6.25;1.10;;;;;;;5.26;72.63;100959.28;5401217;26;20093;-49
2024/04/23 05:22:04;;;;;;;3.42;0.85;;;;;;;5.23;72.83;100949.78;5390055;26;20598;-46
2024/04/23 05:24:30;;;;;;;5.50;1.27;;;;;;;5.25;72.50;100947.28;5365269;26;20036;-47
2024/04/23 05:26:57;;;;;;;5.38;1.95;;;;;;;5.26;72.34;100949.00;5364889;26;20409;-50
2024/04/23 05:29:24;;;;;;;8.40;1.55;;;;;;;5.27;72.27;100955.94;5363651;26;20012;-46
2024/04/23 05:34:37;;;;;;;2.70;0.77;;;;;;;5.25;72.24;100953.31;5401165;26;20047;-49
2024/04/23 05:37:04;;;;;;;6.85;1.55;;;;;;;5.27;72.32;100955.94;5383277;26;20806;-46
2024/04/23 05:39:31;;;;;;;5.63;0.98;;;;;;;5.27;72.18;100956.78;5369757;26;20637;-48
2024/04/23 05:41:58;;;;;;;8.05;1.17;;;;;;;5.28;72.34;100952.53;5371890;26;20036;-48
2024/04/23 05:44:25;;;;;;;7.07;1.35;;;;;;;5.28;72.30;100952.53;5372249;26;20656;-45
2024/04/23 05:46:52;;;;;;;3.38;1.40;;;;;;;5.29;72.28;100954.25;5359916;26;20001;-46
2024/04/23 05:49:58;;;;;;;2.65;1.10;;;;;;;5.30;72.18;100955.16;5364735;26;20004;-45
2024/04/23 05:53:05;;;;;;;3.47;1.05;;;;;;;5.28;72.41;100948.25;5347795;26;20027;-47
2024/04/23 05:55:36;;;;;;;10.18;1.13;;;;;;;5.32;72.41;100945.78;5354233;26;20015;-46
2024/04/23 05:58:04;;;;;;;4.50;1.38;;;;;;;5.35;72.40;100948.47;5357781;26;20015;-47
2024/04/23 06:00:31;;;;;;;3.92;1.50;;;;;;;5.40;72.45;100946.91;5362658;26;20023;-48
2024/04/23 06:02:59;;;;;;;4.28;1.10;;;;;;;5.46;72.25;100943.66;5363827;26;20008;-46
2024/04/23 06:05:26;;;;;;;7.30;1.55;;;;;;;5.51;72.49;100949.84;5341852;26;20494;-45
2024/04/23 06:07:54;;;;;;;2.58;0.90;;;;;;;5.57;72.56;100938.91;5355370;26;20008;-47
2024/04/23 06:10:21;;;;;;;4.18;1.42;;;;;;;5.61;72.74;100941.59;5359695;26;20004;-46
2024/04/23 06:12:49;;;;;;;6.65;1.58;;;;;;;5.68;72.66;100941.81;5362005;26;20004;-45
2024/04/23 06:15:17;;;;;;;6.47;1.33;;;;;;;5.72;72.37;100938.50;5362231;26;20071;-47
2024/04/23 06:17:44;;;;;;;5.25;1.48;;;;;;;5.71;72.35;100939.34;5371278;26;20653;-47
2024/04/23 06:20:14;;;;;;;3.08;1.52;;;;;;;5.76;72.59;100935.19;5393389;26;20000;-46
2024/04/23 06:22:42;;;;;;;7.88;1.02;;;;;;;5.79;72.45;100936.19;5378702;26;20327;-47
2024/04/23 06:25:10;;;;;;;4.18;1.67;;;;;;;5.88;72.32;100930.44;5375863;26;20006;-46
2024/04/23 06:27:38;;;;;;;10.48;2.08;;;;;;;5.94;72.55;100926.31;5365474;26;20717;-47
2024/04/23 06:30:10;;;;;;;3.50;1.08;;;;;;;6.00;72.25;100929.06;5368118;26;20351;-47
2024/04/23 06:32:39;;;;;;;5.68;1.10;;;;;;;6.06;72.33;100933.56;5364997;26;20030;-47
2024/04/23 06:35:06;;;;;;;5.78;1.17;;;;;;;6.15;72.32;100937.28;5368122;26;20071;-49
2024/04/23 06:37:33;;;;;;;5.55;1.10;;;;;;;6.20;72.36;100936.53;5359521;26;20012;-45
2024/04/23 06:40:00;;;;;;;7.32;1.40;;;;;;;6.32;72.38;100930.88;5352957;26;20011;-46
2024/04/23 06:42:32;;;;;;;3.50;1.52;;;;;;;6.64;71.80;100923.19;5369448;26;20013;-45
2024/04/23 06:44:59;;;;;;;3.75;1.55;;;;;;;7.04;71.39;100923.41;5349810;26;20015;-46
2024/04/23 06:47:26;;;;;;;6.57;1.35;;;;;;;7.48;70.72;100932.19;5363892;26;20005;-46
2024/04/23 06:49:53;;;;;;;7.45;1.42;;;;;;;7.84;70.13;100928.75;5391912;26;20011;-47
2024/04/23 06:52:20;;;;;;;4.22;1.13;;;;;;;8.17;69.37;100925.16;5393392;26;20008;-45
2024/04/23 06:54:46;;;;;;;5.20;1.52;;;;;;;8.45;68.33;100922.28;5396711;26;20833;-48
2024/04/23 06:57:14;;;;;;;4.88;1.33;;;;;;;8.80;68.54;100921.25;5403107;26;20626;-46
2024/04/23 06:59:42;;;;;;;6.95;1.10;;;;;;;9.20;67.50;100921.09;5397436;26;20469;-45
2024/04/23 07:02:10;;;;;;;3.45;0.95;;;;;;;9.44;66.88;100923.22;5362722;26;20016;-44
2024/04/23 07:04:37;;;;;;;5.45;1.25;;;;;;;9.56;66.29;100921.69;5369027;26;20008;-44
2024/04/23 07:07:04;;;;;;;3.08;1.63;;;;;;;9.49;65.28;100931.06;5366749;26;20024;-45
2024/04/23 07:09:31;;;;;;;5.28;1.25;;;;;;;9.43;64.89;100918.91;5378270;26;20071;-45
2024/04/23 07:11:58;;;;;;;5.30;0.93;;;;;;;9.31;64.85;100922.16;5402232;26;20015;-51
2024/04/23 07:14:25;;;;;;;7.88;1.52;;;;;;;9.19;64.39;100927.13;5394586;26;20007;-51
2024/04/23 07:16:51;;;;;;;4.25;1.15;;;;;;;9.13;64.55;100917.56;5393641;26;20018;-55
2024/04/23 07:19:18;;;;;;;3.72;1.05;;;;;;;9.22;64.35;100922.88;5389379;26;20014;-48
2024/04/23 07:21:45;;;;;;;4.35;1.27;;;;;;;9.32;64.42;100918.72;5391324;26;20538;-53
2024/04/23 07:24:12;;;;;;;5.63;1.13;;;;;;;9.42;64.01;100913.72;5388280;26;20325;-47
2024/04/23 07:26:39;;;;;;;4.70;1.23;;;;;;;9.47;63.58;100918.13;5391456;26;20007;-48
2024/04/23 07:29:06;;;;;;;4.70;1.08;;;;;;;9.67;63.72;100922.72;5389691;26;20031;-50
2024/04/23 07:31:33;;;;;;;7.60;1.33;;;;;;;9.85;63.28;100918.66;5394575;26;20524;-47
2024/04/23 07:34:00;;;;;;;3.63;1.33;;;;;;;9.89;62.92;100925.59;5407193;26;20406;-48
2024/04/23 07:36:28;;;;;;;4.05;1.52;;;;;;;10.08;62.55;100926.75;5400097;26;20060;-49
2024/04/23 07:38:55;;;;;;;3.97;1.10;;;;;;;10.16;62.43;100919.06;5399343;26;20003;-48
2024/04/23 07:41:22;;;;;;;6.75;1.38;;;;;;;10.16;61.89;100921.66;5361940;26;20008;-50
2024/04/23 07:43:49;;;;;;;11.38;2.03;;;;;;;10.13;62.23;100924.19;5351338;26;20012;-47
2024/04/23 07:46:16;;;;;;;6.18;1.77;;;;;;;10.03;62.21;100931.84;5369287;26;20014;-47
2024/04/23 07:48:43;;;;;;;7.82;1.95;;;;;;;9.88;62.13;100939.41;5378192;26;20081;-47
2024/04/23 07:51:10;;;;;;;4.38;2.30;;;;;;;9.90;62.71;100932.53;5394344;26;20008;-46
2024/04/23 07:53:37;;;;;;;4.93;1.00;;;;;;;9.87;62.62;100927.31;5406734;26;20016;-47
2024/04/23 07:56:04;;;;;;;4.28;1.75;;;;;;;9.85;62.67;100929.88;5399408;26;20018;-47
2024/04/23 07:58:31;;;;;;;8.55;2.03;;;;;;;10.00;63.31;100934.41;5388506;26;19996;-47
2024/04/23 08:00:58;;;;;;;4.55;1.38;;;;;;;10.19;62.72;100928.59;5400551;26;20149;-48
2024/04/23 08:03:25;;;;;;;2.47;1.80;;;;;;;10.23;62.35;100920.03;5395328;26;20043;-44
2024/04/23 08:05:55;;;;;;;12.05;2.30;;;;;;;10.22;61.64;100918.28;5394084;26;20008;-44
2024/04/23 08:08:21;;;;;;;8.20;1.45;;;;;;;10.52;60.81;100911.78;5368741;26;20731;-46
2024/04/23 08:10:49;;;;;;;3.28;1.02;;;;;;;10.93;60.63;100913.06;5369715;26;20040;-46
2024/04/23 08:13:16;;;;;;;7.07;0.98;;;;;;;11.38;60.25;100915.19;5362371;26;20005;-45
2024/04/23 08:15:43;;;;;;;6.88;1.67;;;;;;;11.60;59.26;100904.94;5367418;26;20004;-45
2024/04/23 08:18:10;;;;;;;10.68;1.70;;;;;;;11.86;58.25;100909.44;5362236;26;20040;-46
2024/04/23 08:20:37;;;;;;;4.38;1.80;;;;;;;12.05;58.02;100913.88;5406280;26;20014;-45
2024/04/23 08:23:08;;;;;;;6.68;1.25;;;;;;;12.39;57.05;100912.34;5372709;26;20015;-44
2024/04/23 08:25:35;;;;;;;4.25;1.42;;;;;;;12.69;56.31;100910.66;5392782;26;20015;-47
2024/04/23 08:28:02;;;;;;;3.30;0.98;;;;;;;12.57;55.08;100911.53;5390761;26;20004;-45
2024/04/23 08:30:29;;;;;;;4.55;1.70;;;;;;;12.66;55.55;100915.88;5379545;26;20005;-45
2024/04/23 08:32:55;;;;;;;3.00;1.25;;;;;;;12.52;54.80;100898.50;5358272;26;20000;-45
2024/04/23 08:35:22;;;;;;;4.18;2.17;;;;;;;12.24;55.13;100903.63;5369737;26;20004;-45
2024/04/23 08:37:49;;;;;;;5.95;1.17;;;;;;;11.92;55.62;100912.09;5368611;26;20004;-46
2024/04/23 08:40:16;;;;;;;6.15;1.35;;;;;;;11.66;56.50;100911.03;5390436;26;20012;-48
2024/04/23 08:42:44;;;;;;;5.20;1.58;;;;;;;11.52;56.33;100905.75;5380736;26;20019;-45
2024/04/23 08:45:14;;;;;;;6.00;1.45;;;;;;;11.72;56.78;100907.63;5362770;26;20329;-45
2024/04/23 08:47:42;;;;;;;5.18;1.50;;;;;;;11.75;56.85;100910.25;5357617;26;20005;-47
2024/04/23 08:50:10;;;;;;;5.05;1.58;;;;;;;11.62;57.08;100908.44;5362074;26;20019;-48
2024/04/23 08:52:37;;;;;;;5.57;1.05;;;;;;;11.56;57.19;100915.31;5391412;26;20018;-45
2024/04/23 08:55:06;;;;;;;9.23;1.95;;;;;;;11.46;57.90;100907.44;5382554;26;20029;-49
2024/04/23 08:57:35;;;;;;;9.07;1.67;;;;;;;11.23;57.68;100910.72;5368400;26;20086;-46
2024/04/23 09:00:02;;;;;;;3.35;1.10;;;;;;;10.98;58.11;100923.47;5366964;26;20039;-44
2024/04/23 09:02:36;;;;;;;6.43;1.48;;;;;;;10.83;58.22;100917.28;5367585;26;20016;-45
2024/04/23 09:05:05;;;;;;;6.43;1.40;;;;;;;10.71;58.40;100917.16;5359916;26;20101;-46
2024/04/23 09:07:33;;;;;;;4.30;1.33;;;;;;;10.57;58.89;100920.44;5362515;26;20044;-47
2024/04/23 09:10:03;;;;;;;10.95;1.73;;;;;;;10.52;59.31;100920.44;5366323;26;20012;-46
2024/04/23 09:12:31;;;;;;;2.00;1.15;;;;;;;10.44;59.74;100919.44;5367357;26;20031;-44
2024/04/23 09:14:58;;;;;;;4.57;1.20;;;;;;;10.45;59.67;100921.19;5369211;26;20012;-45
2024/04/23 09:17:27;;;;;;;3.05;1.15;;;;;;;10.45;59.42;100918.59;5367142;26;19997;-50
2024/04/23 09:19:55;;;;;;;7.07;1.55;;;;;;;10.37;59.62;100920.22;5394868;26;20003;-47
2024/04/23 09:22:22;;;;;;;3.58;1.42;;;;;;;10.29;59.78;100915.81;5391349;26;20028;-45
2024/04/23 09:24:59;;;;;;;3.53;1.23;;;;;;;10.20;60.20;100918.25;5357366;26;20027;-47
2024/04/23 09:27:26;;;;;;;3.35;1.52;;;;;;;10.07;59.95;100911.19;5356209;26;20008;-47
2024/04/23 09:29:53;;;;;;;1.70;1.52;;;;;;;9.97;60.14;100912.78;5398558;26;20018;-48
2024/04/23 09:32:20;;;;;;;6.03;1.48;;;;;;;9.85;61.23;100909.19;5399656;26;20072;-49
2024/04/23 09:34:55;;;;;;;2.83;1.65;;;;;;;9.71;62.10;100914.16;5403814;26;20017;-47
2024/04/23 09:37:23;;;;;;;2.15;1.48;;;;;;;9.71;62.65;100911.56;5394647;26;20000;-46
2024/04/23 09:39:50;;;;;;;3.55;0.98;;;;;;;9.82;62.50;100916.00;5404086;26;20069;-50
2024/04/23 09:42:24;;;;;;;3.05;1.13;;;;;;;9.90;63.18;100917.88;5402334;26;20015;-47
2024/04/23 09:44:52;;;;;;;2.95;1.15;;;;;;;9.84;63.07;100911.75;5403271;26;20008;-52
2024/04/23 09:47:19;;;;;;;3.83;1.70;;;;;;;9.79;63.33;100913.41;5403546;26;20018;-47
2024/04/23 09:49:52;;;;;;;3.03;1.73;;;;;;;9.60;65.13;100918.31;5391307;26;20013;-47
2024/04/23 09:52:28;;;;;;;5.60;1.83;;;;;;;9.58;65.15;100927.75;5392557;26;20887;-48
2024/04/23 09:54:56;;;;;;;4.25;1.27;;;;;;;9.51;65.47;100919.91;5385536;26;20321;-47
2024/04/23 09:57:23;;;;;;;4.38;1.70;;;;;;;9.54;65.42;100924.25;5398621;26;20003;-49
2024/04/23 09:59:49;;;;;;;4.68;1.70;;;;;;;9.51;65.36;100919.91;5395090;26;20043;-46
2024/04/23 10:02:25;;;;;;;6.45;2.22;;;;;;;9.55;65.34;100920.81;5393618;26;20472;-47
2024/04/23 10:05:05;;;;;;;3.97;1.48;;;;;;;9.59;65.52;100921.75;5404385;26;20015;-46
2024/04/23 10:07:43;;;;;;;4.05;1.63;;;;;;;9.57;65.11;100907.91;5402829;26;20007;-47
2024/04/23 10:10:11;;;;;;;7.32;1.85;;;;;;;9.52;65.25;100924.22;5411574;26;19999;-47
2024/04/23 10:12:42;;;;;;;9.23;2.92;;;;;;;9.50;65.09;100918.13;5393312;26;20161;-44
2024/04/23 10:15:18;;;;;;;6.07;2.00;;;;;;;9.42;65.52;100911.97;5392435;26;20003;-46
2024/04/23 10:17:50;;;;;;;5.25;2.42;;;;;;;9.43;66.24;100911.16;5384748;26;20013;-46
2024/04/23 10:20:22;;;;;;;5.65;1.85;;;;;;;9.50;65.62;100915.56;5398799;26;20014;-45
2024/04/23 10:22:50;;;;;;;5.30;1.90;;;;;;;9.44;66.22;100906.84;5398639;26;20027;-45
2024/04/23 10:25:19;;;;;;;4.93;1.85;;;;;;;9.39;66.20;100897.28;5403160;26;20015;-45
2024/04/23 10:27:47;;;;;;;4.68;1.80;;;;;;;9.41;65.90;100905.06;5399955;26;20574;-51
2024/04/23 10:30:15;;;;;;;5.78;2.00;;;;;;;9.34;66.50;100904.13;5388896;26;20014;-49
2024/04/23 10:32:42;;;;;;;6.53;1.67;;;;;;;9.42;66.48;100896.47;5396718;26;20000;-47
2024/04/23 10:35:13;;;;;;;4.18;1.42;;;;;;;9.51;66.15;100894.03;5394490;26;19999;-48
2024/04/23 10:37:42;;;;;;;4.60;0.95;;;;;;;9.61;66.82;100899.34;5386197;26;20015;-45
2024/04/23 10:40:13;;;;;;;1.83;1.23;;;;;;;9.67;66.15;100888.22;5398660;26;20080;-45
2024/04/23 10:42:40;;;;;;;4.72;1.50;;;;;;;9.76;66.07;100888.34;5397953;26;20031;-46
2024/04/23 10:45:07;;;;;;;2.85;1.17;;;;;;;9.86;66.11;100899.72;5403416;26;20015;-45
2024/04/23 10:47:34;;;;;;;3.97;1.27;;;;;;;9.89;66.77;100894.56;5403733;26;20008;-46
2024/04/23 10:50:10;;;;;;;2.35;1.30;;;;;;;9.81;66.31;100902.22;5406893;26;20049;-46
2024/04/23 10:52:37;;;;;;;3.17;2.50;;;;;;;9.74;66.65;100896.09;5392266;26;20332;-46
2024/04/23 10:55:06;;;;;;;3.85;2.45;;;;;;;9.71;66.80;100890.88;5385365;26;20022;-46
2024/04/23 10:57:33;;;;;;;2.53;1.45;;;;;;;9.66;67.76;100892.50;5395609;26;20020;-47
2024/04/23 11:00:01;;;;;;;2.45;1.58;;;;;;;9.68;68.50;100885.66;5363103;26;20008;-47
2024/04/23 11:02:36;;;;;;;3.85;1.65;;;;;;;9.86;68.06;100894.53;5361854;26;20023;-44
2024/04/23 11:05:03;;;;;;;3.35;1.77;;;;;;;9.89;67.64;100898.03;5359627;26;20012;-45
2024/04/23 11:07:32;;;;;;;4.30;1.77;;;;;;;9.91;67.54;100900.63;5369551;26;20444;-48
2024/04/23 11:09:59;;;;;;;5.10;2.17;;;;;;;9.89;67.99;100894.56;5371799;26;20452;-46
2024/04/23 11:12:29;;;;;;;2.28;1.42;;;;;;;9.71;68.54;100890.00;5404115;26;20000;-45
2024/04/23 11:14:58;;;;;;;4.60;1.65;;;;;;;9.64;68.29;100892.50;5404725;26;19999;-47
2024/04/23 11:17:25;;;;;;;2.40;1.35;;;;;;;9.37;69.64;100900.72;5400775;26;20036;-49
2024/04/23 11:19:56;;;;;;;2.70;1.42;;;;;;;9.32;69.71;100897.19;5400485;26;20050;-45
2024/04/23 11:22:31;;;;;;;2.63;1.35;;;;;;;9.24;69.71;100887.59;5391447;26;20004;-47
2024/04/23 11:25:03;;;;;;;2.80;1.35;;;;;;;9.29;70.18;100887.63;5370954;26;20000;-46
2024/04/23 11:27:30;;;;;;;6.07;1.88;;;;;;;9.31;70.22;100885.09;5361775;26;20014;-46
2024/04/23 11:29:58;;;;;;;5.88;1.58;;;;;;;9.41;70.01;100868.88;5366974;26;20318;-45
2024/04/23 11:32:26;;;;;;;2.72;1.25;;;;;;;9.49;70.18;100872.44;5399359;26;20008;-44
2024/04/23 11:34:53;;;;;;;4.57;1.48;;;;;;;9.56;71.44;100864.78;5402993;26;20000;-46
2024/04/23 11:37:24;;;;;;;2.85;2.58;;;;;;;9.71;70.79;100874.47;5386453;26;20078;-45
2024/04/23 11:39:56;;;;;;;3.58;1.80;;;;;;;9.90;70.74;100873.88;5369001;26;20894;-47
2024/04/23 11:45:03;;;;;;;4.28;1.40;;;;;;;9.90;70.08;100870.44;5531849;25;20401;-47